sensor_id;sensor_type;location;lat;lon;timestamp;temperature;humidity
38788;DHT22;24536;45.488;12.238;2023-05-14T00:01:25;16.70;86.10
38788;DHT22;24536;45.488;12.238;2023-05-14T00:03:50;16.70;86.20
38788;DHT22;24536;45.488;12.238;2023-05-14T00:06:16;16.70;86.20
38788;DHT22;24536;45.488;12.238;2023-05-14T00:08:41;16.70;86.10
38788;DHT22;24536;45.488;12.238;2023-05-14T00:11:07;16.70;86.00
38788;DHT22;24536;45.488;12.238;2023-05-14T00:13:34;16.70;86.10
38788;DHT22;24536;45.488;12.238;2023-05-14T00:16:00;16.70;86.10
38788;DHT22;24536;45.488;12.238;2023-05-14T00:18:25;16.70;86.00
38788;DHT22;24536;45.488;12.238;2023-05-14T00:20:51;16.70;86.50
38788;DHT22;24536;45.488;12.238;2023-05-14T00:23:20;16.70;86.10
38788;DHT22;24536;45.488;12.238;2023-05-14T00:25:46;16.60;85.90
38788;DHT22;24536;45.488;12.238;2023-05-14T00:28:11;16.60;85.70
38788;DHT22;24536;45.488;12.238;2023-05-14T00:30:37;16.60;85.90
38788;DHT22;24536;45.488;12.238;2023-05-14T00:33:04;16.60;86.00
38788;DHT22;24536;45.488;12.238;2023-05-14T00:35:30;16.60;85.60
38788;DHT22;24536;45.488;12.238;2023-05-14T00:37:55;16.60;86.20
38788;DHT22;24536;45.488;12.238;2023-05-14T00:40:25;16.60;85.60
38788;DHT22;24536;45.488;12.238;2023-05-14T00:42:51;16.60;85.60
38788;DHT22;24536;45.488;12.238;2023-05-14T00:45:17;16.60;85.20
38788;DHT22;24536;45.488;12.238;2023-05-14T00:47:42;16.60;85.20
38788;DHT22;24536;45.488;12.238;2023-05-14T00:50:11;16.60;85.10
38788;DHT22;24536;45.488;12.238;2023-05-14T00:52:37;16.70;85.20
38788;DHT22;24536;45.488;12.238;2023-05-14T00:55:05;16.60;85.10
38788;DHT22;24536;45.488;12.238;2023-05-14T00:57:31;16.70;85.10
38788;DHT22;24536;45.488;12.238;2023-05-14T00:59:58;16.70;84.90
38788;DHT22;24536;45.488;12.238;2023-05-14T01:02:24;16.70;84.70
38788;DHT22;24536;45.488;12.238;2023-05-14T01:04:50;16.70;84.70
38788;DHT22;24536;45.488;12.238;2023-05-14T01:07:25;16.70;84.10
38788;DHT22;24536;45.488;12.238;2023-05-14T01:15:09;16.80;84.40
38788;DHT22;24536;45.488;12.238;2023-05-14T01:17:40;16.80;84.50
38788;DHT22;24536;45.488;12.238;2023-05-14T01:20:08;16.80;84.40
38788;DHT22;24536;45.488;12.238;2023-05-14T01:22:34;16.70;84.20
38788;DHT22;24536;45.488;12.238;2023-05-14T01:24:59;16.80;84.00
38788;DHT22;24536;45.488;12.238;2023-05-14T01:28:27;16.80;84.00
38788;DHT22;24536;45.488;12.238;2023-05-14T01:32:57;16.80;83.80
38788;DHT22;24536;45.488;12.238;2023-05-14T01:35:28;16.80;83.80
38788;DHT22;24536;45.488;12.238;2023-05-14T01:37:59;16.80;83.60
38788;DHT22;24536;45.488;12.238;2023-05-14T01:40:26;16.80;83.80
38788;DHT22;24536;45.488;12.238;2023-05-14T01:42:52;16.80;83.60
38788;DHT22;24536;45.488;12.238;2023-05-14T01:45:24;16.80;84.00
38788;DHT22;24536;45.488;12.238;2023-05-14T01:47:50;16.80;84.30
38788;DHT22;24536;45.488;12.238;2023-05-14T01:50:16;16.80;84.60
38788;DHT22;24536;45.488;12.238;2023-05-14T01:52:42;16.80;85.40
38788;DHT22;24536;45.488;12.238;2023-05-14T01:55:08;16.80;85.70
38788;DHT22;24536;45.488;12.238;2023-05-14T01:57:34;16.80;86.10
38788;DHT22;24536;45.488;12.238;2023-05-14T02:00:00;16.70;86.50
38788;DHT22;24536;45.488;12.238;2023-05-14T02:02:25;16.70;86.90
38788;DHT22;24536;45.488;12.238;2023-05-14T02:04:51;16.70;87.20
38788;DHT22;24536;45.488;12.238;2023-05-14T02:07:17;16.60;87.50
38788;DHT22;24536;45.488;12.238;2023-05-14T02:09:43;16.60;87.50
38788;DHT22;24536;45.488;12.238;2023-05-14T02:12:08;16.70;88.20
38788;DHT22;24536;45.488;12.238;2023-05-14T02:14:35;16.60;88.40
38788;DHT22;24536;45.488;12.238;2023-05-14T02:17:01;16.70;88.60
38788;DHT22;24536;45.488;12.238;2023-05-14T02:19:28;16.60;88.80
38788;DHT22;24536;45.488;12.238;2023-05-14T02:21:54;16.60;88.90
38788;DHT22;24536;45.488;12.238;2023-05-14T02:24:19;16.60;88.70
38788;DHT22;24536;45.488;12.238;2023-05-14T02:26:45;16.50;88.40
38788;DHT22;24536;45.488;12.238;2023-05-14T02:29:11;16.50;88.20
38788;DHT22;24536;45.488;12.238;2023-05-14T02:31:37;16.50;88.30
38788;DHT22;24536;45.488;12.238;2023-05-14T02:34:03;16.50;88.40
38788;DHT22;24536;45.488;12.238;2023-05-14T02:36:29;16.50;88.10
38788;DHT22;24536;45.488;12.238;2023-05-14T02:38:57;16.50;88.40
38788;DHT22;24536;45.488;12.238;2023-05-14T02:41:23;16.50;88.60
38788;DHT22;24536;45.488;12.238;2023-05-14T02:43:49;16.50;88.70
38788;DHT22;24536;45.488;12.238;2023-05-14T02:46:15;16.50;89.10
38788;DHT22;24536;45.488;12.238;2023-05-14T02:48:40;16.40;88.90
38788;DHT22;24536;45.488;12.238;2023-05-14T02:51:06;16.40;88.80
38788;DHT22;24536;45.488;12.238;2023-05-14T02:53:32;16.40;88.60
38788;DHT22;24536;45.488;12.238;2023-05-14T02:55:58;16.40;88.90
38788;DHT22;24536;45.488;12.238;2023-05-14T02:58:23;16.40;88.80
38788;DHT22;24536;45.488;12.238;2023-05-14T03:00:49;16.40;88.80
38788;DHT22;24536;45.488;12.238;2023-05-14T03:03:15;16.40;88.70
38788;DHT22;24536;45.488;12.238;2023-05-14T03:05:41;16.40;88.40
38788;DHT22;24536;45.488;12.238;2023-05-14T03:08:06;16.30;88.40
38788;DHT22;24536;45.488;12.238;2023-05-14T03:10:32;16.30;88.40
38788;DHT22;24536;45.488;12.238;2023-05-14T03:12:58;16.30;88.60
38788;DHT22;24536;45.488;12.238;2023-05-14T03:15:24;16.30;88.40
38788;DHT22;24536;45.488;12.238;2023-05-14T03:17:49;16.30;88.20
38788;DHT22;24536;45.488;12.238;2023-05-14T03:20:15;16.30;87.90
38788;DHT22;24536;45.488;12.238;2023-05-14T03:22:41;16.30;88.20
38788;DHT22;24536;45.488;12.238;2023-05-14T03:25:07;16.30;88.70
38788;DHT22;24536;45.488;12.238;2023-05-14T03:27:32;16.30;88.90
38788;DHT22;24536;45.488;12.238;2023-05-14T03:29:59;16.20;88.90
38788;DHT22;24536;45.488;12.238;2023-05-14T03:32:25;16.20;89.00
38788;DHT22;24536;45.488;12.238;2023-05-14T03:34:50;16.10;89.40
38788;DHT22;24536;45.488;12.238;2023-05-14T03:37:16;16.10;89.40
38788;DHT22;24536;45.488;12.238;2023-05-14T03:39:42;16.10;89.20
38788;DHT22;24536;45.488;12.238;2023-05-14T03:42:07;16.10;89.30
38788;DHT22;24536;45.488;12.238;2023-05-14T03:44:33;16.10;89.60
38788;DHT22;24536;45.488;12.238;2023-05-14T03:46:59;16.10;89.70
38788;DHT22;24536;45.488;12.238;2023-05-14T03:49:24;16.10;89.90
38788;DHT22;24536;45.488;12.238;2023-05-14T03:51:50;16.10;90.00
38788;DHT22;24536;45.488;12.238;2023-05-14T03:54:15;16.10;90.00
38788;DHT22;24536;45.488;12.238;2023-05-14T03:56:41;16.10;90.10
38788;DHT22;24536;45.488;12.238;2023-05-14T03:59:07;16.10;90.30
38788;DHT22;24536;45.488;12.238;2023-05-14T04:01:32;16.10;90.20
38788;DHT22;24536;45.488;12.238;2023-05-14T04:03:58;16.10;89.70
38788;DHT22;24536;45.488;12.238;2023-05-14T04:06:24;16.10;89.90
38788;DHT22;24536;45.488;12.238;2023-05-14T04:08:49;16.00;90.00
38788;DHT22;24536;45.488;12.238;2023-05-14T04:11:15;16.00;90.00
38788;DHT22;24536;45.488;12.238;2023-05-14T04:13:41;16.00;90.00
38788;DHT22;24536;45.488;12.238;2023-05-14T04:16:06;16.00;90.00
38788;DHT22;24536;45.488;12.238;2023-05-14T04:18:32;16.00;90.10
38788;DHT22;24536;45.488;12.238;2023-05-14T04:21:01;16.00;90.20
38788;DHT22;24536;45.488;12.238;2023-05-14T04:23:28;16.00;90.70
38788;DHT22;24536;45.488;12.238;2023-05-14T04:25:53;16.00;90.50
38788;DHT22;24536;45.488;12.238;2023-05-14T04:28:19;16.00;90.40
38788;DHT22;24536;45.488;12.238;2023-05-14T04:30:45;16.00;90.50
38788;DHT22;24536;45.488;12.238;2023-05-14T04:33:10;16.00;90.40
38788;DHT22;24536;45.488;12.238;2023-05-14T04:35:36;16.10;90.60
38788;DHT22;24536;45.488;12.238;2023-05-14T04:38:02;16.00;90.50
38788;DHT22;24536;45.488;12.238;2023-05-14T04:40:27;16.10;90.50
38788;DHT22;24536;45.488;12.238;2023-05-14T04:42:53;16.10;90.50
38788;DHT22;24536;45.488;12.238;2023-05-14T04:45:19;16.10;90.40
38788;DHT22;24536;45.488;12.238;2023-05-14T04:47:45;16.10;90.40
38788;DHT22;24536;45.488;12.238;2023-05-14T04:50:11;16.00;90.40
38788;DHT22;24536;45.488;12.238;2023-05-14T04:52:37;16.00;90.30
38788;DHT22;24536;45.488;12.238;2023-05-14T04:55:03;16.00;90.30
38788;DHT22;24536;45.488;12.238;2023-05-14T04:57:29;16.00;90.40
38788;DHT22;24536;45.488;12.238;2023-05-14T04:59:55;16.00;90.50
38788;DHT22;24536;45.488;12.238;2023-05-14T05:02:20;16.00;90.50
38788;DHT22;24536;45.488;12.238;2023-05-14T05:04:46;16.00;90.50
38788;DHT22;24536;45.488;12.238;2023-05-14T05:07:12;16.00;90.50
38788;DHT22;24536;45.488;12.238;2023-05-14T05:09:39;16.00;90.40
38788;DHT22;24536;45.488;12.238;2023-05-14T05:12:05;16.00;90.40
38788;DHT22;24536;45.488;12.238;2023-05-14T05:14:30;16.10;90.40
38788;DHT22;24536;45.488;12.238;2023-05-14T05:16:56;16.10;90.30
38788;DHT22;24536;45.488;12.238;2023-05-14T05:19:22;16.10;90.30
38788;DHT22;24536;45.488;12.238;2023-05-14T05:21:47;16.10;90.40
38788;DHT22;24536;45.488;12.238;2023-05-14T05:24:13;16.10;90.40
38788;DHT22;24536;45.488;12.238;2023-05-14T05:26:39;16.10;90.40
38788;DHT22;24536;45.488;12.238;2023-05-14T05:29:06;16.20;90.50
38788;DHT22;24536;45.488;12.238;2023-05-14T05:31:32;16.10;90.40
38788;DHT22;24536;45.488;12.238;2023-05-14T05:33:58;16.20;90.40
38788;DHT22;24536;45.488;12.238;2023-05-14T05:36:24;16.10;90.40
38788;DHT22;24536;45.488;12.238;2023-05-14T05:38:50;16.10;90.50
38788;DHT22;24536;45.488;12.238;2023-05-14T05:41:16;16.10;90.50
38788;DHT22;24536;45.488;12.238;2023-05-14T05:43:41;16.10;90.40
38788;DHT22;24536;45.488;12.238;2023-05-14T05:46:07;16.10;90.60
38788;DHT22;24536;45.488;12.238;2023-05-14T05:48:32;16.10;90.60
38788;DHT22;24536;45.488;12.238;2023-05-14T05:50:58;16.10;90.60
38788;DHT22;24536;45.488;12.238;2023-05-14T05:53:24;16.20;90.70
38788;DHT22;24536;45.488;12.238;2023-05-14T05:55:50;16.20;90.50
38788;DHT22;24536;45.488;12.238;2023-05-14T05:58:19;16.20;90.50
38788;DHT22;24536;45.488;12.238;2023-05-14T06:00:45;16.30;90.40
38788;DHT22;24536;45.488;12.238;2023-05-14T06:03:12;16.30;90.40
38788;DHT22;24536;45.488;12.238;2023-05-14T06:05:37;16.30;90.50
38788;DHT22;24536;45.488;12.238;2023-05-14T06:08:04;16.40;90.50
38788;DHT22;24536;45.488;12.238;2023-05-14T06:10:29;16.40;90.40
38788;DHT22;24536;45.488;12.238;2023-05-14T06:12:55;16.40;90.60
38788;DHT22;24536;45.488;12.238;2023-05-14T06:15:22;16.50;90.50
38788;DHT22;24536;45.488;12.238;2023-05-14T06:17:47;16.50;90.40
38788;DHT22;24536;45.488;12.238;2023-05-14T06:20:13;16.50;90.40
38788;DHT22;24536;45.488;12.238;2023-05-14T06:22:39;16.50;90.40
38788;DHT22;24536;45.488;12.238;2023-05-14T06:25:05;16.50;90.40
38788;DHT22;24536;45.488;12.238;2023-05-14T06:27:30;16.40;90.40
38788;DHT22;24536;45.488;12.238;2023-05-14T06:29:56;16.40;90.50
38788;DHT22;24536;45.488;12.238;2023-05-14T06:32:22;16.40;90.50
38788;DHT22;24536;45.488;12.238;2023-05-14T06:34:47;16.40;90.60
38788;DHT22;24536;45.488;12.238;2023-05-14T06:37:13;16.40;90.60
38788;DHT22;24536;45.488;12.238;2023-05-14T06:39:39;16.40;90.60
38788;DHT22;24536;45.488;12.238;2023-05-14T06:42:05;16.40;90.70
38788;DHT22;24536;45.488;12.238;2023-05-14T06:44:31;16.30;90.70
38788;DHT22;24536;45.488;12.238;2023-05-14T06:46:57;16.30;90.70
38788;DHT22;24536;45.488;12.238;2023-05-14T06:49:23;16.30;90.80
38788;DHT22;24536;45.488;12.238;2023-05-14T06:51:48;16.30;90.90
38788;DHT22;24536;45.488;12.238;2023-05-14T06:54:14;16.30;90.90
38788;DHT22;24536;45.488;12.238;2023-05-14T06:56:40;16.30;91.00
38788;DHT22;24536;45.488;12.238;2023-05-14T06:59:05;16.30;91.40
38788;DHT22;24536;45.488;12.238;2023-05-14T07:01:31;16.40;91.10
38788;DHT22;24536;45.488;12.238;2023-05-14T07:03:56;16.40;91.00
38788;DHT22;24536;45.488;12.238;2023-05-14T07:06:22;16.40;91.10
38788;DHT22;24536;45.488;12.238;2023-05-14T07:08:48;16.40;91.00
38788;DHT22;24536;45.488;12.238;2023-05-14T07:11:13;16.30;91.00
38788;DHT22;24536;45.488;12.238;2023-05-14T07:13:40;16.30;91.00
38788;DHT22;24536;45.488;12.238;2023-05-14T07:16:06;16.30;91.20
38788;DHT22;24536;45.488;12.238;2023-05-14T07:18:33;16.30;91.30
38788;DHT22;24536;45.488;12.238;2023-05-14T07:20:59;16.30;91.30
38788;DHT22;24536;45.488;12.238;2023-05-14T07:23:25;16.20;91.40
38788;DHT22;24536;45.488;12.238;2023-05-14T07:25:50;16.20;91.40
38788;DHT22;24536;45.488;12.238;2023-05-14T07:28:16;16.20;91.60
38788;DHT22;24536;45.488;12.238;2023-05-14T07:30:42;16.20;91.70
38788;DHT22;24536;45.488;12.238;2023-05-14T07:33:07;16.20;91.80
38788;DHT22;24536;45.488;12.238;2023-05-14T07:35:33;16.20;91.80
38788;DHT22;24536;45.488;12.238;2023-05-14T07:37:59;16.20;91.80
38788;DHT22;24536;45.488;12.238;2023-05-14T07:40:24;16.20;91.90
38788;DHT22;24536;45.488;12.238;2023-05-14T07:42:50;16.20;91.90
38788;DHT22;24536;45.488;12.238;2023-05-14T07:45:16;16.20;92.10
38788;DHT22;24536;45.488;12.238;2023-05-14T07:47:41;16.20;92.10
38788;DHT22;24536;45.488;12.238;2023-05-14T07:50:07;16.20;92.20
38788;DHT22;24536;45.488;12.238;2023-05-14T07:52:33;16.20;92.40
38788;DHT22;24536;45.488;12.238;2023-05-14T07:54:59;16.20;92.60
38788;DHT22;24536;45.488;12.238;2023-05-14T07:57:26;16.20;92.50
38788;DHT22;24536;45.488;12.238;2023-05-14T07:59:51;16.20;92.50
38788;DHT22;24536;45.488;12.238;2023-05-14T08:02:17;16.10;92.50
38788;DHT22;24536;45.488;12.238;2023-05-14T08:04:43;16.10;92.80
38788;DHT22;24536;45.488;12.238;2023-05-14T08:07:09;16.20;92.80
38788;DHT22;24536;45.488;12.238;2023-05-14T08:09:35;16.20;92.80
38788;DHT22;24536;45.488;12.238;2023-05-14T08:12:01;16.20;92.90
38788;DHT22;24536;45.488;12.238;2023-05-14T08:14:27;16.20;93.00
38788;DHT22;24536;45.488;12.238;2023-05-14T08:16:53;16.20;93.00
38788;DHT22;24536;45.488;12.238;2023-05-14T08:19:18;16.20;93.10
38788;DHT22;24536;45.488;12.238;2023-05-14T08:21:44;16.20;93.30
38788;DHT22;24536;45.488;12.238;2023-05-14T08:24:10;16.20;93.30
38788;DHT22;24536;45.488;12.238;2023-05-14T08:26:36;16.20;93.30
38788;DHT22;24536;45.488;12.238;2023-05-14T08:29:03;16.10;93.30
38788;DHT22;24536;45.488;12.238;2023-05-14T08:31:29;16.20;93.40
38788;DHT22;24536;45.488;12.238;2023-05-14T08:33:55;16.20;93.50
38788;DHT22;24536;45.488;12.238;2023-05-14T08:36:20;16.20;93.50
38788;DHT22;24536;45.488;12.238;2023-05-14T08:38:46;16.20;93.60
38788;DHT22;24536;45.488;12.238;2023-05-14T08:41:14;16.20;93.70
38788;DHT22;24536;45.488;12.238;2023-05-14T08:46:43;16.20;93.90
38788;DHT22;24536;45.488;12.238;2023-05-14T08:51:59;16.10;94.10
38788;DHT22;24536;45.488;12.238;2023-05-14T08:54:25;16.10;94.20
38788;DHT22;24536;45.488;12.238;2023-05-14T08:56:53;16.20;94.20
38788;DHT22;24536;45.488;12.238;2023-05-14T08:59:19;16.20;94.20
38788;DHT22;24536;45.488;12.238;2023-05-14T09:01:51;16.10;94.20
38788;DHT22;24536;45.488;12.238;2023-05-14T09:04:20;16.10;94.30
38788;DHT22;24536;45.488;12.238;2023-05-14T09:06:53;16.10;94.40
38788;DHT22;24536;45.488;12.238;2023-05-14T09:09:20;16.10;94.50
38788;DHT22;24536;45.488;12.238;2023-05-14T09:11:51;16.10;94.50
38788;DHT22;24536;45.488;12.238;2023-05-14T09:14:17;16.10;94.60
38788;DHT22;24536;45.488;12.238;2023-05-14T09:16:47;16.10;94.60
38788;DHT22;24536;45.488;12.238;2023-05-14T09:19:14;16.10;94.70
38788;DHT22;24536;45.488;12.238;2023-05-14T09:21:40;16.00;94.70
38788;DHT22;24536;45.488;12.238;2023-05-14T09:24:06;16.00;94.80
38788;DHT22;24536;45.488;12.238;2023-05-14T09:26:33;16.00;94.80
38788;DHT22;24536;45.488;12.238;2023-05-14T09:28:59;16.00;94.90
38788;DHT22;24536;45.488;12.238;2023-05-14T09:31:30;16.10;95.00
38788;DHT22;24536;45.488;12.238;2023-05-14T09:33:56;16.00;94.90
38788;DHT22;24536;45.488;12.238;2023-05-14T09:36:22;16.10;95.00
38788;DHT22;24536;45.488;12.238;2023-05-14T09:38:49;16.10;95.10
38788;DHT22;24536;45.488;12.238;2023-05-14T09:41:15;16.20;95.20
38788;DHT22;24536;45.488;12.238;2023-05-14T09:43:41;16.20;95.10
38788;DHT22;24536;45.488;12.238;2023-05-14T09:46:09;16.30;95.00
38788;DHT22;24536;45.488;12.238;2023-05-14T09:48:35;16.30;95.20
38788;DHT22;24536;45.488;12.238;2023-05-14T09:51:01;16.40;95.10
38788;DHT22;24536;45.488;12.238;2023-05-14T09:53:27;16.50;95.20
38788;DHT22;24536;45.488;12.238;2023-05-14T09:55:54;16.60;95.00
38788;DHT22;24536;45.488;12.238;2023-05-14T09:58:19;16.70;94.80
38788;DHT22;24536;45.488;12.238;2023-05-14T10:00:45;16.70;94.80
38788;DHT22;24536;45.488;12.238;2023-05-14T10:03:13;16.80;94.80
38788;DHT22;24536;45.488;12.238;2023-05-14T10:05:41;17.00;95.10
38788;DHT22;24536;45.488;12.238;2023-05-14T10:08:26;17.20;95.00
38788;DHT22;24536;45.488;12.238;2023-05-14T10:10:54;17.40;94.80
38788;DHT22;24536;45.488;12.238;2023-05-14T10:13:27;17.50;94.00
38788;DHT22;24536;45.488;12.238;2023-05-14T10:16:09;17.50;92.70
38788;DHT22;24536;45.488;12.238;2023-05-14T10:18:41;17.60;93.00
38788;DHT22;24536;45.488;12.238;2023-05-14T10:21:07;17.70;92.50
38788;DHT22;24536;45.488;12.238;2023-05-14T10:23:35;17.70;91.60
38788;DHT22;24536;45.488;12.238;2023-05-14T10:26:21;17.70;91.30
38788;DHT22;24536;45.488;12.238;2023-05-14T10:28:46;17.80;91.50
38788;DHT22;24536;45.488;12.238;2023-05-14T10:31:12;17.90;91.80
38788;DHT22;24536;45.488;12.238;2023-05-14T10:33:48;18.00;92.00
38788;DHT22;24536;45.488;12.238;2023-05-14T10:36:16;18.10;92.00
38788;DHT22;24536;45.488;12.238;2023-05-14T10:38:43;18.20;91.80
38788;DHT22;24536;45.488;12.238;2023-05-14T10:41:11;18.30;91.80
38788;DHT22;24536;45.488;12.238;2023-05-14T10:43:43;18.50;92.20
38788;DHT22;24536;45.488;12.238;2023-05-14T10:46:13;18.60;92.30
38788;DHT22;24536;45.488;12.238;2023-05-14T10:48:42;18.60;89.20
38788;DHT22;24536;45.488;12.238;2023-05-14T10:51:09;18.50;90.40
38788;DHT22;24536;45.488;12.238;2023-05-14T10:53:37;18.50;90.70
38788;DHT22;24536;45.488;12.238;2023-05-14T10:56:11;18.50;90.60
38788;DHT22;24536;45.488;12.238;2023-05-14T10:58:38;18.40;90.20
38788;DHT22;24536;45.488;12.238;2023-05-14T11:01:08;18.40;90.40
38788;DHT22;24536;45.488;12.238;2023-05-14T11:03:39;18.50;90.70
38788;DHT22;24536;45.488;12.238;2023-05-14T11:06:06;18.50;90.70
38788;DHT22;24536;45.488;12.238;2023-05-14T11:08:32;18.60;90.60
38788;DHT22;24536;45.488;12.238;2023-05-14T11:10:59;18.60;90.40
38788;DHT22;24536;45.488;12.238;2023-05-14T11:13:28;18.70;89.70
38788;DHT22;24536;45.488;12.238;2023-05-14T11:15:55;18.70;89.20
38788;DHT22;24536;45.488;12.238;2023-05-14T11:18:34;18.80;89.10
38788;DHT22;24536;45.488;12.238;2023-05-14T11:21:03;18.80;88.10
38788;DHT22;24536;45.488;12.238;2023-05-14T11:23:28;18.80;88.90
38788;DHT22;24536;45.488;12.238;2023-05-14T11:25:55;18.80;88.80
38788;DHT22;24536;45.488;12.238;2023-05-14T11:28:21;18.70;89.00
38788;DHT22;24536;45.488;12.238;2023-05-14T11:30:49;18.70;88.70
38788;DHT22;24536;45.488;12.238;2023-05-14T11:33:15;18.70;88.40
38788;DHT22;24536;45.488;12.238;2023-05-14T11:35:41;18.70;89.30
38788;DHT22;24536;45.488;12.238;2023-05-14T11:38:19;18.70;89.30
38788;DHT22;24536;45.488;12.238;2023-05-14T11:40:55;18.70;89.10
38788;DHT22;24536;45.488;12.238;2023-05-14T11:43:22;18.70;86.90
38788;DHT22;24536;45.488;12.238;2023-05-14T11:45:54;18.60;87.80
38788;DHT22;24536;45.488;12.238;2023-05-14T11:48:22;18.50;87.20
38788;DHT22;24536;45.488;12.238;2023-05-14T11:50:51;18.50;86.70
38788;DHT22;24536;45.488;12.238;2023-05-14T11:53:29;18.50;86.80
38788;DHT22;24536;45.488;12.238;2023-05-14T11:55:56;18.40;87.50
38788;DHT22;24536;45.488;12.238;2023-05-14T11:58:23;18.40;87.40
38788;DHT22;24536;45.488;12.238;2023-05-14T12:00:52;18.50;87.00
38788;DHT22;24536;45.488;12.238;2023-05-14T12:03:19;18.50;87.40
38788;DHT22;24536;45.488;12.238;2023-05-14T12:06:00;18.50;87.20
38788;DHT22;24536;45.488;12.238;2023-05-14T12:08:30;18.60;88.00
38788;DHT22;24536;45.488;12.238;2023-05-14T12:10:57;18.60;87.30
38788;DHT22;24536;45.488;12.238;2023-05-14T12:13:28;18.60;87.20
38788;DHT22;24536;45.488;12.238;2023-05-14T12:15:56;18.70;86.80
38788;DHT22;24536;45.488;12.238;2023-05-14T12:18:24;18.70;86.10
38788;DHT22;24536;45.488;12.238;2023-05-14T12:20:50;18.70;86.00
38788;DHT22;24536;45.488;12.238;2023-05-14T12:23:23;18.70;85.60
38788;DHT22;24536;45.488;12.238;2023-05-14T12:25:52;18.80;85.80
38788;DHT22;24536;45.488;12.238;2023-05-14T12:28:18;18.80;85.70
38788;DHT22;24536;45.488;12.238;2023-05-14T12:30:45;18.90;86.30
38788;DHT22;24536;45.488;12.238;2023-05-14T12:33:11;19.00;85.40
38788;DHT22;24536;45.488;12.238;2023-05-14T12:35:38;18.90;84.60
38788;DHT22;24536;45.488;12.238;2023-05-14T12:38:03;18.90;85.60
38788;DHT22;24536;45.488;12.238;2023-05-14T12:40:29;19.00;85.70
38788;DHT22;24536;45.488;12.238;2023-05-14T12:42:55;19.10;86.00
38788;DHT22;24536;45.488;12.238;2023-05-14T12:45:20;19.20;86.70
38788;DHT22;24536;45.488;12.238;2023-05-14T12:47:46;19.30;86.00
38788;DHT22;24536;45.488;12.238;2023-05-14T12:50:12;19.40;85.60
38788;DHT22;24536;45.488;12.238;2023-05-14T12:52:37;19.40;84.80
38788;DHT22;24536;45.488;12.238;2023-05-14T12:55:04;19.40;85.10
38788;DHT22;24536;45.488;12.238;2023-05-14T12:57:29;19.40;83.60
38788;DHT22;24536;45.488;12.238;2023-05-14T13:00:00;19.40;83.60
38788;DHT22;24536;45.488;12.238;2023-05-14T13:02:25;19.40;83.80
38788;DHT22;24536;45.488;12.238;2023-05-14T13:04:57;19.40;82.50
38788;DHT22;24536;45.488;12.238;2023-05-14T13:07:23;19.40;82.80
38788;DHT22;24536;45.488;12.238;2023-05-14T13:09:50;19.40;82.50
38788;DHT22;24536;45.488;12.238;2023-05-14T13:12:16;19.30;82.40
38788;DHT22;24536;45.488;12.238;2023-05-14T13:14:41;19.30;82.80
38788;DHT22;24536;45.488;12.238;2023-05-14T13:17:07;19.30;83.00
38788;DHT22;24536;45.488;12.238;2023-05-14T13:19:32;19.20;83.10
38788;DHT22;24536;45.488;12.238;2023-05-14T13:21:58;19.20;83.40
38788;DHT22;24536;45.488;12.238;2023-05-14T13:24:24;19.40;83.60
38788;DHT22;24536;45.488;12.238;2023-05-14T13:26:49;19.40;83.40
38788;DHT22;24536;45.488;12.238;2023-05-14T13:29:15;19.50;83.00
38788;DHT22;24536;45.488;12.238;2023-05-14T13:31:41;19.50;82.30
38788;DHT22;24536;45.488;12.238;2023-05-14T13:34:06;19.50;83.20
38788;DHT22;24536;45.488;12.238;2023-05-14T13:36:33;19.50;83.60
38788;DHT22;24536;45.488;12.238;2023-05-14T13:39:06;19.50;84.30
38788;DHT22;24536;45.488;12.238;2023-05-14T13:41:32;19.50;83.60
38788;DHT22;24536;45.488;12.238;2023-05-14T13:44:02;19.50;84.10
38788;DHT22;24536;45.488;12.238;2023-05-14T13:46:28;19.40;84.20
38788;DHT22;24536;45.488;12.238;2023-05-14T13:48:54;19.30;83.60
38788;DHT22;24536;45.488;12.238;2023-05-14T13:51:20;19.30;83.90
38788;DHT22;24536;45.488;12.238;2023-05-14T13:53:46;19.30;83.50
38788;DHT22;24536;45.488;12.238;2023-05-14T13:56:12;19.20;83.70
38788;DHT22;24536;45.488;12.238;2023-05-14T13:58:37;19.20;83.50
38788;DHT22;24536;45.488;12.238;2023-05-14T14:01:03;19.10;83.70
38788;DHT22;24536;45.488;12.238;2023-05-14T14:03:29;19.10;83.60
38788;DHT22;24536;45.488;12.238;2023-05-14T14:05:55;19.10;83.60
38788;DHT22;24536;45.488;12.238;2023-05-14T14:08:20;19.10;83.40
38788;DHT22;24536;45.488;12.238;2023-05-14T14:10:46;19.10;83.50
38788;DHT22;24536;45.488;12.238;2023-05-14T14:13:12;19.20;83.50
38788;DHT22;24536;45.488;12.238;2023-05-14T14:15:38;19.20;83.70
38788;DHT22;24536;45.488;12.238;2023-05-14T14:18:04;19.20;83.10
38788;DHT22;24536;45.488;12.238;2023-05-14T14:20:30;19.20;84.10
38788;DHT22;24536;45.488;12.238;2023-05-14T14:22:56;19.20;84.40
38788;DHT22;24536;45.488;12.238;2023-05-14T14:25:22;19.20;84.80
38788;DHT22;24536;45.488;12.238;2023-05-14T14:27:47;19.20;84.70
38788;DHT22;24536;45.488;12.238;2023-05-14T14:30:13;19.20;84.60
38788;DHT22;24536;45.488;12.238;2023-05-14T14:32:46;19.10;85.10
38788;DHT22;24536;45.488;12.238;2023-05-14T14:35:13;19.10;85.10
38788;DHT22;24536;45.488;12.238;2023-05-14T14:37:40;19.10;85.20
38788;DHT22;24536;45.488;12.238;2023-05-14T14:40:07;19.10;85.30
38788;DHT22;24536;45.488;12.238;2023-05-14T14:42:35;19.10;85.90
38788;DHT22;24536;45.488;12.238;2023-05-14T14:45:04;19.10;85.60
38788;DHT22;24536;45.488;12.238;2023-05-14T14:47:30;19.10;85.70
38788;DHT22;24536;45.488;12.238;2023-05-14T14:49:57;19.10;86.10
38788;DHT22;24536;45.488;12.238;2023-05-14T14:52:23;19.10;87.00
38788;DHT22;24536;45.488;12.238;2023-05-14T14:54:49;19.10;86.10
38788;DHT22;24536;45.488;12.238;2023-05-14T14:57:16;19.10;85.80
38788;DHT22;24536;45.488;12.238;2023-05-14T14:59:41;19.10;85.60
38788;DHT22;24536;45.488;12.238;2023-05-14T15:02:08;19.00;85.30
38788;DHT22;24536;45.488;12.238;2023-05-14T15:04:34;19.00;85.30
38788;DHT22;24536;45.488;12.238;2023-05-14T15:07:01;19.00;86.20
38788;DHT22;24536;45.488;12.238;2023-05-14T15:09:26;19.00;86.10
38788;DHT22;24536;45.488;12.238;2023-05-14T15:11:52;19.00;86.10
38788;DHT22;24536;45.488;12.238;2023-05-14T15:14:18;19.00;85.80
38788;DHT22;24536;45.488;12.238;2023-05-14T15:16:43;19.00;85.80
38788;DHT22;24536;45.488;12.238;2023-05-14T15:19:09;19.00;86.10
38788;DHT22;24536;45.488;12.238;2023-05-14T15:21:38;19.00;86.00
38788;DHT22;24536;45.488;12.238;2023-05-14T15:24:04;19.00;85.80
38788;DHT22;24536;45.488;12.238;2023-05-14T15:32:46;19.00;86.10